sensor_id;sensor_type;location;lat;lon;timestamp;pressure;altitude;pressure_sealevel;temperature;humidity
30516;BME280;17297;54.022;10.760;2023-06-14T00:01:31;101937.84;;;18.45;72.00
30516;BME280;17297;54.022;10.760;2023-06-14T00:04:00;101932.59;;;18.44;71.97
30516;BME280;17297;54.022;10.760;2023-06-14T00:06:28;101933.88;;;18.41;71.74
30516;BME280;17297;54.022;10.760;2023-06-14T00:08:53;101940.38;;;18.40;71.92
30516;BME280;17297;54.022;10.760;2023-06-14T00:11:19;101935.75;;;18.41;72.10
30516;BME280;17297;54.022;10.760;2023-06-14T00:13:44;101932.19;;;18.40;71.98
30516;BME280;17297;54.022;10.760;2023-06-14T00:16:10;101934.09;;;18.40;71.75
30516;BME280;17297;54.022;10.760;2023-06-14T00:18:36;101931.38;;;18.40;71.75
30516;BME280;17297;54.022;10.760;2023-06-14T00:21:02;101935.97;;;18.39;71.85
30516;BME280;17297;54.022;10.760;2023-06-14T00:23:27;101940.59;;;18.39;71.69
30516;BME280;17297;54.022;10.760;2023-06-14T00:25:52;101942.50;;;18.38;71.74
30516;BME280;17297;54.022;10.760;2023-06-14T00:28:18;101946.25;;;18.37;71.80
30516;BME280;17297;54.022;10.760;2023-06-14T00:30:43;101943.53;;;18.37;71.58
30516;BME280;17297;54.022;10.760;2023-06-14T00:33:11;101940.19;;;18.35;71.48
30516;BME280;17297;54.022;10.760;2023-06-14T00:35:36;101948.13;;;18.37;71.55
30516;BME280;17297;54.022;10.760;2023-06-14T00:38:03;101950.03;;;18.36;71.78
30516;BME280;17297;54.022;10.760;2023-06-14T00:40:28;101954.66;;;18.36;71.77
30516;BME280;17297;54.022;10.760;2023-06-14T00:42:54;101953.19;;;18.33;71.77
30516;BME280;17297;54.022;10.760;2023-06-14T00:45:19;101965.16;;;18.32;71.73
30516;BME280;17297;54.022;10.760;2023-06-14T00:47:46;101958.22;;;18.30;71.77
30516;BME280;17297;54.022;10.760;2023-06-14T00:50:12;101963.88;;;18.28;71.46
30516;BME280;17297;54.022;10.760;2023-06-14T00:52:39;101966.00;;;18.26;71.67
30516;BME280;17297;54.022;10.760;2023-06-14T00:55:05;101967.91;;;18.26;71.90
30516;BME280;17297;54.022;10.760;2023-06-14T00:57:31;101963.47;;;18.24;71.67
30516;BME280;17297;54.022;10.760;2023-06-14T00:59:57;101962.66;;;18.24;71.56
30516;BME280;17297;54.022;10.760;2023-06-14T01:02:23;101965.59;;;18.22;71.84
30516;BME280;17297;54.022;10.760;2023-06-14T01:04:50;101959.72;;;18.19;72.07
30516;BME280;17297;54.022;10.760;2023-06-14T01:10:26;101964.34;;;18.18;72.49
30516;BME280;17297;54.022;10.760;2023-06-14T01:13:11;101960.59;;;18.19;72.76
30516;BME280;17297;54.022;10.760;2023-06-14T01:15:38;101964.97;;;18.20;72.93
30516;BME280;17297;54.022;10.760;2023-06-14T01:18:04;101964.75;;;18.22;72.95
30516;BME280;17297;54.022;10.760;2023-06-14T01:20:32;101959.72;;;18.19;72.73
30516;BME280;17297;54.022;10.760;2023-06-14T01:23:03;101964.34;;;18.18;72.73
30516;BME280;17297;54.022;10.760;2023-06-14T01:25:29;101962.66;;;18.17;73.13
30516;BME280;17297;54.022;10.760;2023-06-14T01:28:00;101963.50;;;18.18;73.27
30516;BME280;17297;54.022;10.760;2023-06-14T01:30:29;101967.88;;;18.19;73.35
30516;BME280;17297;54.022;10.760;2023-06-14T01:32:56;101969.78;;;18.18;73.44
30516;BME280;17297;54.022;10.760;2023-06-14T01:35:23;101963.72;;;18.16;73.36
30516;BME280;17297;54.022;10.760;2023-06-14T01:37:49;101968.13;;;18.17;73.44
30516;BME280;17297;54.022;10.760;2023-06-14T01:40:16;101966.22;;;18.18;73.37
30516;BME280;17297;54.022;10.760;2023-06-14T01:42:43;101966.47;;;18.16;73.39
30516;BME280;17297;54.022;10.760;2023-06-14T01:45:10;101961.00;;;18.16;73.37
30516;BME280;17297;54.022;10.760;2023-06-14T01:47:35;101968.94;;;18.18;73.43
30516;BME280;17297;54.022;10.760;2023-06-14T01:50:04;101964.56;;;18.17;73.45
30516;BME280;17297;54.022;10.760;2023-06-14T01:52:30;101970.59;;;18.19;73.33
30516;BME280;17297;54.022;10.760;2023-06-14T01:54:55;101973.34;;;18.19;73.31
30516;BME280;17297;54.022;10.760;2023-06-14T01:57:22;101972.50;;;18.18;73.40
30516;BME280;17297;54.022;10.760;2023-06-14T01:59:47;101965.16;;;18.19;72.97
30516;BME280;17297;54.022;10.760;2023-06-14T02:02:14;101970.59;;;18.19;73.03
30516;BME280;17297;54.022;10.760;2023-06-14T02:04:40;101967.28;;;18.17;72.59
30516;BME280;17297;54.022;10.760;2023-06-14T02:07:05;101970.00;;;18.17;72.50
30516;BME280;17297;54.022;10.760;2023-06-14T02:09:32;101972.31;;;18.13;72.51
30516;BME280;17297;54.022;10.760;2023-06-14T02:11:57;101977.13;;;18.11;72.40
30516;BME280;17297;54.022;10.760;2023-06-14T02:14:23;101973.59;;;18.11;72.24
30516;BME280;17297;54.022;10.760;2023-06-14T02:16:48;101969.41;;;18.08;72.23
30516;BME280;17297;54.022;10.760;2023-06-14T02:19:17;101970.66;;;18.06;72.42
30516;BME280;17297;54.022;10.760;2023-06-14T02:21:43;101966.69;;;18.02;72.60
30516;BME280;17297;54.022;10.760;2023-06-14T02:24:12;101965.00;;;18.00;72.70
30516;BME280;17297;54.022;10.760;2023-06-14T02:26:37;101969.84;;;17.98;72.62
30516;BME280;17297;54.022;10.760;2023-06-14T02:29:04;101969.84;;;17.98;72.92
30516;BME280;17297;54.022;10.760;2023-06-14T02:31:31;101966.28;;;17.98;72.59
30516;BME280;17297;54.022;10.760;2023-06-14T02:33:57;101970.03;;;17.97;72.71
30516;BME280;17297;54.022;10.760;2023-06-14T02:36:22;101963.16;;;17.94;72.48
30516;BME280;17297;54.022;10.760;2023-06-14T02:38:47;101965.88;;;17.94;73.02
30516;BME280;17297;54.022;10.760;2023-06-14T02:41:13;101963.16;;;17.94;72.86
30516;BME280;17297;54.022;10.760;2023-06-14T02:43:38;101963.75;;;17.96;72.67
30516;BME280;17297;54.022;10.760;2023-06-14T02:46:05;101970.91;;;17.97;72.84
30516;BME280;17297;54.022;10.760;2023-06-14T02:48:31;101962.72;;;17.97;72.73
30516;BME280;17297;54.022;10.760;2023-06-14T02:50:56;101960.00;;;17.97;72.46
30516;BME280;17297;54.022;10.760;2023-06-14T02:53:22;101968.19;;;17.97;72.57
30516;BME280;17297;54.022;10.760;2023-06-14T02:55:48;101969.00;;;17.98;72.71
30516;BME280;17297;54.022;10.760;2023-06-14T02:58:14;101971.72;;;17.98;72.89
30516;BME280;17297;54.022;10.760;2023-06-14T03:00:39;101972.56;;;17.98;73.15
30516;BME280;17297;54.022;10.760;2023-06-14T03:03:06;101976.94;;;17.99;72.88
30516;BME280;17297;54.022;10.760;2023-06-14T03:05:47;101977.19;;;17.98;73.44
30516;BME280;17297;54.022;10.760;2023-06-14T03:08:16;101977.38;;;17.96;73.66
30516;BME280;17297;54.022;10.760;2023-06-14T03:10:48;101977.38;;;17.96;74.30
30516;BME280;17297;54.022;10.760;2023-06-14T03:13:15;101980.72;;;17.98;74.40
30516;BME280;17297;54.022;10.760;2023-06-14T03:15:42;101982.81;;;18.03;74.42
30516;BME280;17297;54.022;10.760;2023-06-14T03:18:08;101987.63;;;18.08;74.53
30516;BME280;17297;54.022;10.760;2023-06-14T03:20:38;101985.50;;;18.10;74.65
30516;BME280;17297;54.022;10.760;2023-06-14T03:23:05;101984.25;;;18.12;74.47
30516;BME280;17297;54.022;10.760;2023-06-14T03:25:31;101979.44;;;18.14;74.27
30516;BME280;17297;54.022;10.760;2023-06-14T03:28:01;101989.91;;;18.17;74.17
30516;BME280;17297;54.022;10.760;2023-06-14T03:30:30;101994.09;;;18.20;74.01
30516;BME280;17297;54.022;10.760;2023-06-14T03:33:00;101985.09;;;18.19;73.97
30516;BME280;17297;54.022;10.760;2023-06-14T03:35:31;101985.69;;;18.21;73.96
30516;BME280;17297;54.022;10.760;2023-06-14T03:37:57;101999.94;;;18.23;73.86
30516;BME280;17297;54.022;10.760;2023-06-14T03:40:23;101999.72;;;18.25;73.88
30516;BME280;17297;54.022;10.760;2023-06-14T03:42:58;102002.66;;;18.30;73.83
30516;BME280;17297;54.022;10.760;2023-06-14T03:45:23;102000.75;;;18.31;73.62
30516;BME280;17297;54.022;10.760;2023-06-14T03:47:49;102009.56;;;18.33;73.47
30516;BME280;17297;54.022;10.760;2023-06-14T03:50:15;101999.50;;;18.33;73.46
30516;BME280;17297;54.022;10.760;2023-06-14T03:52:41;101996.34;;;18.36;73.56
30516;BME280;17297;54.022;10.760;2023-06-14T03:55:09;102001.13;;;18.41;73.43
30516;BME280;17297;54.022;10.760;2023-06-14T03:57:37;101996.94;;;18.45;73.18
30516;BME280;17297;54.022;10.760;2023-06-14T04:00:09;101999.25;;;18.48;73.39
30516;BME280;17297;54.022;10.760;2023-06-14T04:02:39;102006.16;;;18.51;73.03
30516;BME280;17297;54.022;10.760;2023-06-14T04:05:05;102005.94;;;18.52;73.21
30516;BME280;17297;54.022;10.760;2023-06-14T04:07:34;102008.22;;;18.55;73.10
30516;BME280;17297;54.022;10.760;2023-06-14T04:10:06;102021.22;;;18.60;72.77
30516;BME280;17297;54.022;10.760;2023-06-14T04:12:33;102013.44;;;18.63;72.73
30516;BME280;17297;54.022;10.760;2023-06-14T04:14:58;102011.13;;;18.67;72.46
30516;BME280;17297;54.022;10.760;2023-06-14T04:17:24;102017.78;;;18.71;72.66
30516;BME280;17297;54.022;10.760;2023-06-14T04:19:49;102019.28;;;18.74;72.41
30516;BME280;17297;54.022;10.760;2023-06-14T04:22:15;102020.75;;;18.76;72.08
30516;BME280;17297;54.022;10.760;2023-06-14T04:24:41;102023.88;;;18.80;71.72
30516;BME280;17297;54.022;10.760;2023-06-14T04:27:07;102018.81;;;18.83;71.26
30516;BME280;17297;54.022;10.760;2023-06-14T04:29:34;102032.03;;;18.86;71.05
30516;BME280;17297;54.022;10.760;2023-06-14T04:32:04;102026.75;;;18.91;70.97
30516;BME280;17297;54.022;10.760;2023-06-14T04:34:31;102035.09;;;18.97;70.87
30516;BME280;17297;54.022;10.760;2023-06-14T04:37:00;102034.47;;;19.01;70.85
30516;BME280;17297;54.022;10.760;2023-06-14T04:39:38;102029.81;;;19.08;70.74
30516;BME280;17297;54.022;10.760;2023-06-14T04:42:04;102040.06;;;19.13;70.62
30516;BME280;17297;54.022;10.760;2023-06-14T04:44:30;102039.41;;;19.18;70.51
30516;BME280;17297;54.022;10.760;2023-06-14T04:46:58;102040.44;;;19.23;70.37
30516;BME280;17297;54.022;10.760;2023-06-14T04:49:24;102044.38;;;19.27;70.25
30516;BME280;17297;54.022;10.760;2023-06-14T04:51:50;102042.66;;;19.33;69.85
30516;BME280;17297;54.022;10.760;2023-06-14T04:54:23;102043.88;;;19.37;69.55
30516;BME280;17297;54.022;10.760;2023-06-14T04:56:51;102052.47;;;19.41;69.43
30516;BME280;17297;54.022;10.760;2023-06-14T04:59:19;102045.75;;;19.43;69.35
30516;BME280;17297;54.022;10.760;2023-06-14T05:01:45;102053.28;;;19.48;69.23
30516;BME280;17297;54.022;10.760;2023-06-14T05:04:17;102047.38;;;19.51;68.87
30516;BME280;17297;54.022;10.760;2023-06-14T05:06:44;102046.50;;;19.57;68.70
30516;BME280;17297;54.022;10.760;2023-06-14T05:09:11;102040.16;;;19.63;68.64
30516;BME280;17297;54.022;10.760;2023-06-14T05:11:37;102047.25;;;19.71;68.60
30516;BME280;17297;54.022;10.760;2023-06-14T05:14:03;102047.81;;;19.79;68.46
30516;BME280;17297;54.022;10.760;2023-06-14T05:16:28;102046.25;;;19.90;68.10
30516;BME280;17297;54.022;10.760;2023-06-14T05:18:54;102042.41;;;19.98;67.58
30516;BME280;17297;54.022;10.760;2023-06-14T05:21:20;102039.81;;;20.03;67.50
30516;BME280;17297;54.022;10.760;2023-06-14T05:23:45;102054.03;;;20.12;67.41
30516;BME280;17297;54.022;10.760;2023-06-14T05:26:11;102055.66;;;20.38;67.25
30516;BME280;17297;54.022;10.760;2023-06-14T05:28:36;102050.53;;;20.85;66.65
30516;BME280;17297;54.022;10.760;2023-06-14T05:31:02;102046.69;;;21.34;65.76
30516;BME280;17297;54.022;10.760;2023-06-14T05:33:27;102053.94;;;21.82;65.16
30516;BME280;17297;54.022;10.760;2023-06-14T05:35:53;102052.88;;;22.30;64.06
30516;BME280;17297;54.022;10.760;2023-06-14T05:38:18;102046.72;;;22.75;63.34
30516;BME280;17297;54.022;10.760;2023-06-14T05:40:43;102050.91;;;23.18;62.10
30516;BME280;17297;54.022;10.760;2023-06-14T05:43:09;102054.59;;;23.58;61.36
30516;BME280;17297;54.022;10.760;2023-06-14T05:45:34;102047.00;;;23.93;60.57
30516;BME280;17297;54.022;10.760;2023-06-14T05:47:59;102061.75;;;24.26;59.54
30516;BME280;17297;54.022;10.760;2023-06-14T05:50:25;102056.41;;;24.53;58.22
30516;BME280;17297;54.022;10.760;2023-06-14T05:52:50;102059.84;;;24.65;57.50
30516;BME280;17297;54.022;10.760;2023-06-14T05:55:16;102056.72;;;24.57;56.70
30516;BME280;17297;54.022;10.760;2023-06-14T05:57:42;102062.00;;;24.41;56.57
30516;BME280;17297;54.022;10.760;2023-06-14T06:00:08;102064.78;;;24.25;56.01
30516;BME280;17297;54.022;10.760;2023-06-14T06:02:40;102064.13;;;24.01;56.41
30516;BME280;17297;54.022;10.760;2023-06-14T06:05:06;102065.97;;;23.78;56.35
30516;BME280;17297;54.022;10.760;2023-06-14T06:07:32;102067.06;;;23.48;56.85
30516;BME280;17297;54.022;10.760;2023-06-14T06:09:57;102068.69;;;23.16;57.17
30516;BME280;17297;54.022;10.760;2023-06-14T06:12:22;102067.22;;;22.85;57.98
30516;BME280;17297;54.022;10.760;2023-06-14T06:14:48;102065.84;;;22.58;58.70
30516;BME280;17297;54.022;10.760;2023-06-14T06:17:13;102068.16;;;22.38;59.08
30516;BME280;17297;54.022;10.760;2023-06-14T06:19:38;102067.66;;;22.18;59.06
30516;BME280;17297;54.022;10.760;2023-06-14T06:22:04;102076.84;;;22.00;59.01
30516;BME280;17297;54.022;10.760;2023-06-14T06:24:31;102069.75;;;21.80;59.47
30516;BME280;17297;54.022;10.760;2023-06-14T06:26:57;102066.88;;;21.63;59.61
30516;BME280;17297;54.022;10.760;2023-06-14T06:29:22;102069.84;;;21.50;59.86
30516;BME280;17297;54.022;10.760;2023-06-14T06:31:47;102068.34;;;21.36;60.15
30516;BME280;17297;54.022;10.760;2023-06-14T06:34:13;102077.72;;;21.28;60.69
30516;BME280;17297;54.022;10.760;2023-06-14T06:36:38;102070.34;;;21.29;60.69
30516;BME280;17297;54.022;10.760;2023-06-14T06:39:04;102066.44;;;21.36;61.08
30516;BME280;17297;54.022;10.760;2023-06-14T06:41:37;102067.28;;;21.37;61.05
30516;BME280;17297;54.022;10.760;2023-06-14T06:44:05;102074.44;;;21.38;60.77
30516;BME280;17297;54.022;10.760;2023-06-14T06:46:32;102075.91;;;21.34;60.97
30516;BME280;17297;54.022;10.760;2023-06-14T06:48:58;102076.78;;;21.34;60.90
30516;BME280;17297;54.022;10.760;2023-06-14T06:51:24;102079.97;;;21.61;61.19
30516;BME280;17297;54.022;10.760;2023-06-14T06:53:53;102079.09;;;21.91;60.52
30516;BME280;17297;54.022;10.760;2023-06-14T06:56:19;102086.72;;;22.01;59.89
30516;BME280;17297;54.022;10.760;2023-06-14T06:58:45;102087.78;;;22.00;60.05
30516;BME280;17297;54.022;10.760;2023-06-14T07:01:10;102095.50;;;21.91;59.99
30516;BME280;17297;54.022;10.760;2023-06-14T07:03:36;102098.84;;;21.81;60.08
30516;BME280;17297;54.022;10.760;2023-06-14T07:06:02;102094.78;;;21.72;60.08
30516;BME280;17297;54.022;10.760;2023-06-14T07:08:27;102091.75;;;21.62;60.22
30516;BME280;17297;54.022;10.760;2023-06-14T07:10:53;102092.72;;;21.56;60.57
30516;BME280;17297;54.022;10.760;2023-06-14T07:13:18;102099.47;;;21.53;60.83
30516;BME280;17297;54.022;10.760;2023-06-14T07:15:44;102099.69;;;21.52;60.54
30516;BME280;17297;54.022;10.760;2023-06-14T07:18:11;102108.38;;;21.49;61.04
30516;BME280;17297;54.022;10.760;2023-06-14T07:20:37;102103.16;;;21.47;60.97
30516;BME280;17297;54.022;10.760;2023-06-14T07:23:05;102107.56;;;21.48;60.98
30516;BME280;17297;54.022;10.760;2023-06-14T07:25:31;102110.06;;;21.50;60.97
30516;BME280;17297;54.022;10.760;2023-06-14T07:27:56;102115.53;;;21.50;60.93
30516;BME280;17297;54.022;10.760;2023-06-14T07:30:22;102116.84;;;21.47;60.83
30516;BME280;17297;54.022;10.760;2023-06-14T07:32:51;102107.19;;;21.44;61.45
30516;BME280;17297;54.022;10.760;2023-06-14T07:35:17;102116.47;;;21.43;61.40
30516;BME280;17297;54.022;10.760;2023-06-14T07:37:43;102126.34;;;21.44;61.37
30516;BME280;17297;54.022;10.760;2023-06-14T07:40:08;102124.22;;;21.47;62.33
30516;BME280;17297;54.022;10.760;2023-06-14T07:42:35;102126.72;;;21.48;62.16
30516;BME280;17297;54.022;10.760;2023-06-14T07:45:04;102125.63;;;21.49;62.19
30516;BME280;17297;54.022;10.760;2023-06-14T07:47:31;102118.03;;;21.51;62.65
30516;BME280;17297;54.022;10.760;2023-06-14T07:49:57;102118.03;;;21.51;62.48
30516;BME280;17297;54.022;10.760;2023-06-14T07:52:22;102130.91;;;21.51;62.68
30516;BME280;17297;54.022;10.760;2023-06-14T07:54:48;102130.28;;;21.49;62.74
30516;BME280;17297;54.022;10.760;2023-06-14T07:57:13;102130.75;;;21.45;62.68
30516;BME280;17297;54.022;10.760;2023-06-14T07:59:38;102131.22;;;21.42;62.89
30516;BME280;17297;54.022;10.760;2023-06-14T08:02:04;102125.38;;;21.39;63.18
30516;BME280;17297;54.022;10.760;2023-06-14T08:04:29;102123.09;;;21.36;63.31
30516;BME280;17297;54.022;10.760;2023-06-14T08:06:56;102126.72;;;21.30;63.46
30516;BME280;17297;54.022;10.760;2023-06-14T08:09:21;102121.72;;;21.27;63.50
30516;BME280;17297;54.022;10.760;2023-06-14T08:11:47;102121.59;;;21.21;63.56
30516;BME280;17297;54.022;10.760;2023-06-14T08:14:12;102118.69;;;21.16;63.71
30516;BME280;17297;54.022;10.760;2023-06-14T08:16:38;102121.91;;;21.13;63.79
30516;BME280;17297;54.022;10.760;2023-06-14T08:19:03;102134.13;;;21.11;63.96
30516;BME280;17297;54.022;10.760;2023-06-14T08:21:28;102136.72;;;21.06;63.67
30516;BME280;17297;54.022;10.760;2023-06-14T08:23:55;102140.16;;;21.01;63.73
30516;BME280;17297;54.022;10.760;2023-06-14T08:26:21;102138.06;;;20.96;63.32
30516;BME280;17297;54.022;10.760;2023-06-14T08:28:47;102142.59;;;20.91;63.75
30516;BME280;17297;54.022;10.760;2023-06-14T08:31:12;102144.09;;;20.87;63.54
30516;BME280;17297;54.022;10.760;2023-06-14T08:33:38;102136.13;;;20.85;63.99
30516;BME280;17297;54.022;10.760;2023-06-14T08:36:04;102140.16;;;20.83;63.59
30516;BME280;17297;54.022;10.760;2023-06-14T08:38:29;102142.50;;;20.79;63.91
30516;BME280;17297;54.022;10.760;2023-06-14T08:40:57;102136.41;;;20.77;64.41
30516;BME280;17297;54.022;10.760;2023-06-14T08:43:22;102134.97;;;20.74;64.36
30516;BME280;17297;54.022;10.760;2023-06-14T08:45:49;102144.50;;;20.72;64.53
30516;BME280;17297;54.022;10.760;2023-06-14T08:48:19;102146.81;;;20.68;64.75
30516;BME280;17297;54.022;10.760;2023-06-14T08:50:47;102147.88;;;20.67;64.65
30516;BME280;17297;54.022;10.760;2023-06-14T08:53:14;102147.88;;;20.67;64.63
30516;BME280;17297;54.022;10.760;2023-06-14T08:55:41;102144.78;;;20.64;64.53
30516;BME280;17297;54.022;10.760;2023-06-14T08:58:08;102149.41;;;20.63;64.80
30516;BME280;17297;54.022;10.760;2023-06-14T09:00:34;102145.22;;;20.61;64.70
30516;BME280;17297;54.022;10.760;2023-06-14T09:03:02;102151.97;;;20.58;64.50
30516;BME280;17297;54.022;10.760;2023-06-14T09:05:28;102142.78;;;20.52;64.59
30516;BME280;17297;54.022;10.760;2023-06-14T09:07:54;102139.41;;;20.50;64.64
30516;BME280;17297;54.022;10.760;2023-06-14T09:10:22;102145.72;;;20.51;64.18
30516;BME280;17297;54.022;10.760;2023-06-14T09:12:47;102138.78;;;20.48;63.99
30516;BME280;17297;54.022;10.760;2023-06-14T09:15:13;102137.72;;;20.49;64.25
30516;BME280;17297;54.022;10.760;2023-06-14T09:17:39;102144.06;;;20.50;64.58
30516;BME280;17297;54.022;10.760;2023-06-14T09:20:06;102142.34;;;20.49;64.20
30516;BME280;17297;54.022;10.760;2023-06-14T09:22:33;102149.97;;;20.47;64.29
30516;BME280;17297;54.022;10.760;2023-06-14T09:24:59;102148.91;;;20.48;64.33
30516;BME280;17297;54.022;10.760;2023-06-14T09:27:26;102154.13;;;20.49;64.48
30516;BME280;17297;54.022;10.760;2023-06-14T09:29:52;102150.56;;;20.49;64.32
30516;BME280;17297;54.022;10.760;2023-06-14T09:32:18;102156.84;;;20.49;64.28
30516;BME280;17297;54.022;10.760;2023-06-14T09:34:45;102150.34;;;20.50;64.46
30516;BME280;17297;54.022;10.760;2023-06-14T09:37:10;102145.50;;;20.52;64.72
30516;BME280;17297;54.022;10.760;2023-06-14T09:39:35;102149.09;;;20.53;64.24
30516;BME280;17297;54.022;10.760;2023-06-14T09:42:17;102154.56;;;20.53;64.47
30516;BME280;17297;54.022;10.760;2023-06-14T09:44:44;102147.78;;;20.56;64.82
30516;BME280;17297;54.022;10.760;2023-06-14T09:47:10;102151.97;;;20.58;64.64
30516;BME280;17297;54.022;10.760;2023-06-14T09:52:01;102156.22;;;20.54;64.66
30516;BME280;17297;54.022;10.760;2023-06-14T09:54:28;102154.56;;;20.53;64.97
30516;BME280;17297;54.022;10.760;2023-06-14T09:56:54;102147.19;;;20.53;65.00
30516;BME280;17297;54.022;10.760;2023-06-14T09:59:25;102153.72;;;20.52;65.06
30516;BME280;17297;54.022;10.760;2023-06-14T10:01:57;102149.69;;;20.55;64.88
30516;BME280;17297;54.022;10.760;2023-06-14T10:04:24;102142.56;;;20.54;64.12
30516;BME280;17297;54.022;10.760;2023-06-14T10:06:50;102134.56;;;20.52;64.45
30516;BME280;17297;54.022;10.760;2023-06-14T10:09:16;102135.81;;;20.57;65.48
30516;BME280;17297;54.022;10.760;2023-06-14T10:11:42;102141.22;;;20.63;64.99
30516;BME280;17297;54.022;10.760;2023-06-14T10:14:10;102137.56;;;20.69;65.09
30516;BME280;17297;54.022;10.760;2023-06-14T10:16:47;102135.22;;;20.73;64.56
30516;BME280;17297;54.022;10.760;2023-06-14T10:19:21;102131.66;;;20.72;64.52
30516;BME280;17297;54.022;10.760;2023-06-14T10:22:04;102137.13;;;20.72;64.59
30516;BME280;17297;54.022;10.760;2023-06-14T10:24:43;102140.69;;;20.73;64.64
30516;BME280;17297;54.022;10.760;2023-06-14T10:27:08;102137.25;;;20.77;65.07
30516;BME280;17297;54.022;10.760;2023-06-14T10:32:25;102129.22;;;20.83;63.81
30516;BME280;17297;54.022;10.760;2023-06-14T10:35:15;102130.88;;;20.84;64.17
30516;BME280;17297;54.022;10.760;2023-06-14T10:37:39;102127.69;;;20.87;63.95
30516;BME280;17297;54.022;10.760;2023-06-14T10:40:06;102129.38;;;20.88;63.88
30516;BME280;17297;54.022;10.760;2023-06-14T10:42:33;102133.31;;;20.92;63.58
30516;BME280;17297;54.022;10.760;2023-06-14T10:45:00;102125.25;;;20.97;63.32
30516;BME280;17297;54.022;10.760;2023-06-14T10:47:33;102127.53;;;21.00;63.08
30516;BME280;17297;54.022;10.760;2023-06-14T10:50:10;102125.38;;;21.02;63.41
30516;BME280;17297;54.022;10.760;2023-06-14T10:52:40;102121.81;;;21.02;62.62
30516;BME280;17297;54.022;10.760;2023-06-14T10:55:11;102122.28;;;20.98;61.92
30516;BME280;17297;54.022;10.760;2023-06-14T10:57:50;102126.09;;;20.97;61.82
30516;BME280;17297;54.022;10.760;2023-06-14T11:00:22;102115.53;;;21.01;61.89
30516;BME280;17297;54.022;10.760;2023-06-14T11:02:58;102118.09;;;20.96;61.13
30516;BME280;17297;54.022;10.760;2023-06-14T11:05:30;102105.75;;;20.93;61.70
30516;BME280;17297;54.022;10.760;2023-06-14T11:10:38;102099.41;;;20.93;62.75
30516;BME280;17297;54.022;10.760;2023-06-14T11:13:04;102104.66;;;20.94;62.99
30516;BME280;17297;54.022;10.760;2023-06-14T11:15:31;102111.22;;;20.93;63.25
30516;BME280;17297;54.022;10.760;2023-06-14T11:17:56;102105.75;;;20.93;63.70
30516;BME280;17297;54.022;10.760;2023-06-14T11:20:26;102104.88;;;20.93;63.93
30516;BME280;17297;54.022;10.760;2023-06-14T11:22:53;102097.28;;;20.95;63.91
30516;BME280;17297;54.022;10.760;2023-06-14T11:25:19;102103.38;;;20.97;64.05
30516;BME280;17297;54.022;10.760;2023-06-14T11:27:45;102098.97;;;20.96;64.19
30516;BME280;17297;54.022;10.760;2023-06-14T11:30:14;102099.78;;;20.96;63.68
30516;BME280;17297;54.022;10.760;2023-06-14T11:32:40;102095.25;;;20.90;62.79
30516;BME280;17297;54.022;10.760;2023-06-14T11:35:06;102095.94;;;20.86;63.16
30516;BME280;17297;54.022;10.760;2023-06-14T11:37:32;102088.34;;;20.88;64.15
30516;BME280;17297;54.022;10.760;2023-06-14T11:40:01;102089.78;;;20.90;63.82
30516;BME280;17297;54.022;10.760;2023-06-14T11:42:29;102090.63;;;20.91;63.50
30516;BME280;17297;54.022;10.760;2023-06-14T11:44:55;102098.22;;;20.89;62.68
30516;BME280;17297;54.022;10.760;2023-06-14T11:47:21;102086.66;;;20.87;62.62
30516;BME280;17297;54.022;10.760;2023-06-14T11:49:47;102094.28;;;20.85;63.17
30516;BME280;17297;54.022;10.760;2023-06-14T11:52:13;102093.19;;;20.86;62.98
30516;BME280;17297;54.022;10.760;2023-06-14T11:54:39;102098.47;;;20.87;62.99
30516;BME280;17297;54.022;10.760;2023-06-14T11:57:07;102087.97;;;20.84;62.80
30516;BME280;17297;54.022;10.760;2023-06-14T11:59:38;102083.91;;;20.87;63.43
30516;BME280;17297;54.022;10.760;2023-06-14T12:02:04;102091.28;;;20.86;63.13
30516;BME280;17297;54.022;10.760;2023-06-14T12:04:29;102090.47;;;20.86;62.76
30516;BME280;17297;54.022;10.760;2023-06-14T12:06:55;102086.06;;;20.85;62.72
30516;BME280;17297;54.022;10.760;2023-06-14T12:09:23;102076.78;;;20.86;63.37
30516;BME280;17297;54.022;10.760;2023-06-14T12:11:49;102073.59;;;20.89;63.28
30516;BME280;17297;54.022;10.760;2023-06-14T12:14:15;102063.28;;;20.91;63.27
30516;BME280;17297;54.022;10.760;2023-06-14T12:16:42;102076.94;;;20.91;63.64
30516;BME280;17297;54.022;10.760;2023-06-14T12:19:09;102072.94;;;20.93;62.84
30516;BME280;17297;54.022;10.760;2023-06-14T12:21:37;102067.66;;;20.92;62.89
30516;BME280;17297;54.022;10.760;2023-06-14T12:24:04;102066.00;;;20.91;63.00
30516;BME280;17297;54.022;10.760;2023-06-14T12:26:32;102061.84;;;20.88;63.24
30516;BME280;17297;54.022;10.760;2023-06-14T12:28:57;102074.69;;;20.88;62.96
30516;BME280;17297;54.022;10.760;2023-06-14T12:31:23;102070.03;;;20.88;62.79
30516;BME280;17297;54.022;10.760;2023-06-14T12:33:49;102067.50;;;20.87;62.04
30516;BME280;17297;54.022;10.760;2023-06-14T12:36:15;102070.25;;;20.87;62.26
30516;BME280;17297;54.022;10.760;2023-06-14T12:38:41;102073.59;;;20.89;62.44
30516;BME280;17297;54.022;10.760;2023-06-14T12:41:07;102070.78;;;20.95;62.62
30516;BME280;17297;54.022;10.760;2023-06-14T12:43:33;102068.41;;;20.99;62.34
30516;BME280;17297;54.022;10.760;2023-06-14T12:45:59;102065.22;;;21.02;61.60
30516;BME280;17297;54.022;10.760;2023-06-14T12:48:25;102060.81;;;21.01;61.16
30516;BME280;17297;54.022;10.760;2023-06-14T12:50:52;102063.56;;;21.01;60.94